Time;durP1;ratioP1;P1;durP2;ratioP2;P2;SDS_P1;SDS_P2;PMS_P1;PMS_P2;Temp;Humidity;BMP_temperature;BMP_pressure;BME280_temperature;BME280_humidity;BME280_pressure;Samples;Min_cycle;Max_cycle;Signal;HPM_P1;HPM_P2
2021/10/06 00:02:01;;;;;;;1.80;0.63;;;14.40;99.90;;;;;;5031319;28;20205;-78
2021/10/06 00:04:27;;;;;;;2.33;0.70;;;14.40;99.90;;;;;;5025900;28;20181;-78
2021/10/06 00:06:53;;;;;;;2.37;0.63;;;14.40;99.90;;;;;;5031915;28;20166;-78
2021/10/06 00:09:19;;;;;;;1.40;0.60;;;14.40;99.90;;;;;;5033046;28;20683;-78
2021/10/06 00:11:45;;;;;;;4.23;1.00;;;14.40;99.90;;;;;;5032927;28;20190;-78
2021/10/06 00:14:12;;;;;;;1.10;0.50;;;14.40;99.90;;;;;;5033097;28;20246;-78
2021/10/06 00:16:38;;;;;;;1.30;0.60;;;14.40;99.90;;;;;;5033033;28;20561;-78
2021/10/06 00:19:05;;;;;;;2.47;0.70;;;14.50;99.90;;;;;;5033042;28;20567;-78
2021/10/06 00:21:30;;;;;;;2.25;1.10;;;14.50;99.90;;;;;;5032739;28;20600;-78
2021/10/06 00:23:56;;;;;;;5.80;0.90;;;14.50;99.90;;;;;;5019464;28;20196;-78
2021/10/06 00:26:22;;;;;;;2.50;0.60;;;14.50;99.90;;;;;;5033468;28;20193;-78
2021/10/06 00:28:48;;;;;;;2.40;0.70;;;14.40;99.90;;;;;;5031518;28;20173;-78
2021/10/06 00:31:13;;;;;;;1.83;0.60;;;14.40;99.90;;;;;;5032268;28;20832;-79
2021/10/06 00:33:39;;;;;;;2.40;0.77;;;14.40;99.90;;;;;;5032853;28;20166;-78
2021/10/06 00:36:05;;;;;;;3.37;0.77;;;14.30;99.90;;;;;;5031383;28;20173;-78
2021/10/06 00:38:31;;;;;;;2.60;0.70;;;14.30;99.90;;;;;;5031540;28;20169;-78
2021/10/06 00:40:57;;;;;;;1.50;0.60;;;14.20;99.90;;;;;;5031803;28;20671;-78
2021/10/06 00:43:24;;;;;;;2.70;0.60;;;14.20;99.90;;;;;;5024256;28;20178;-78
2021/10/06 00:45:50;;;;;;;3.38;0.70;;;14.10;99.90;;;;;;5015129;28;20981;-78
2021/10/06 00:48:16;;;;;;;3.50;0.77;;;14.10;99.90;;;;;;5032321;28;20205;-78
2021/10/06 00:50:42;;;;;;;2.95;0.77;;;14.00;99.90;;;;;;5032017;28;20640;-79
2021/10/06 00:53:08;;;;;;;3.10;1.10;;;14.00;99.90;;;;;;5032080;28;20165;-78
2021/10/06 00:55:35;;;;;;;1.80;0.60;;;13.90;99.90;;;;;;5031204;28;20180;-78
2021/10/06 00:58:01;;;;;;;1.90;0.70;;;13.90;99.90;;;;;;5032256;28;20637;-78
2021/10/06 01:00:27;;;;;;;1.70;0.60;;;13.80;99.90;;;;;;5031338;28;20234;-79
2021/10/06 01:02:52;;;;;;;6.27;0.70;;;13.80;99.90;;;;;;5037972;28;20265;-78
2021/10/06 01:05:18;;;;;;;3.73;0.60;;;13.70;99.90;;;;;;5032184;28;20572;-79
2021/10/06 01:07:44;;;;;;;1.60;0.67;;;13.70;99.90;;;;;;5032304;28;20251;-78
2021/10/06 01:10:11;;;;;;;2.43;0.60;;;13.70;99.90;;;;;;5031076;28;20232;-78
2021/10/06 01:12:38;;;;;;;1.80;1.02;;;13.70;99.90;;;;;;5030852;28;20588;-78
2021/10/06 01:15:10;;;;;;;2.50;0.65;;;13.60;99.90;;;;;;5030352;28;20205;-78
2021/10/06 01:17:36;;;;;;;2.05;0.60;;;13.60;99.90;;;;;;5024000;28;20201;-78
2021/10/06 01:20:04;;;;;;;2.20;0.70;;;13.60;99.90;;;;;;5029745;28;20255;-78
2021/10/06 01:22:30;;;;;;;4.32;0.70;;;13.60;99.90;;;;;;5024918;28;20176;-79
2021/10/06 01:24:56;;;;;;;2.70;0.63;;;13.60;99.90;;;;;;5031656;28;20169;-78
2021/10/06 01:27:22;;;;;;;1.70;0.53;;;13.60;99.90;;;;;;5031765;28;20177;-78
2021/10/06 01:29:47;;;;;;;1.30;0.60;;;13.60;99.90;;;;;;5031454;28;20651;-78
2021/10/06 01:32:16;;;;;;;1.30;0.53;;;13.60;99.90;;;;;;5031395;28;20554;-78
2021/10/06 01:34:42;;;;;;;2.08;0.60;;;13.60;99.90;;;;;;5031703;28;20161;-78
2021/10/06 01:37:08;;;;;;;2.85;0.70;;;13.60;99.90;;;;;;5031682;28;20166;-78
2021/10/06 01:39:34;;;;;;;2.47;0.68;;;13.70;99.90;;;;;;5037605;28;20260;-78
2021/10/06 01:42:00;;;;;;;5.18;0.80;;;13.70;99.90;;;;;;5031082;28;20234;-78
2021/10/06 01:44:27;;;;;;;3.13;0.75;;;13.70;99.90;;;;;;5013855;28;20169;-78
2021/10/06 01:46:53;;;;;;;1.93;0.60;;;13.70;99.90;;;;;;5031379;28;20261;-77
2021/10/06 01:49:18;;;;;;;3.20;1.67;;;13.80;99.90;;;;;;5031536;28;20604;-77
2021/10/06 01:51:45;;;;;;;2.43;0.90;;;13.80;99.90;;;;;;5029767;28;20600;-77
2021/10/06 01:54:11;;;;;;;1.63;0.70;;;13.80;99.90;;;;;;5031595;28;20218;-77
2021/10/06 01:56:37;;;;;;;2.95;0.70;;;13.80;99.90;;;;;;5031425;28;20174;-77
2021/10/06 01:59:04;;;;;;;3.28;1.45;;;13.80;99.90;;;;;;5031229;28;20212;-78
2021/10/06 02:01:29;;;;;;;2.15;0.70;;;13.80;99.90;;;;;;5030888;28;20197;-78
2021/10/06 02:03:55;;;;;;;2.90;0.70;;;13.80;99.90;;;;;;5030144;28;20177;-77
2021/10/06 02:06:21;;;;;;;3.07;0.63;;;13.70;99.90;;;;;;5031345;28;20576;-78
2021/10/06 02:08:47;;;;;;;2.95;0.68;;;13.70;99.90;;;;;;5030973;28;20565;-78
2021/10/06 02:11:14;;;;;;;1.95;0.60;;;13.80;99.90;;;;;;5030838;28;20212;-78
2021/10/06 02:13:39;;;;;;;1.58;0.60;;;13.70;99.90;;;;;;5031187;28;20166;-78
2021/10/06 02:16:05;;;;;;;1.57;0.63;;;13.80;99.90;;;;;;5036572;28;20169;-77
2021/10/06 02:18:31;;;;;;;3.67;2.00;;;13.80;99.90;;;;;;5031360;28;20259;-77
2021/10/06 02:20:57;;;;;;;2.40;0.70;;;13.80;99.90;;;;;;5013103;28;20593;-79
2021/10/06 02:23:23;;;;;;;2.37;0.80;;;13.80;99.90;;;;;;5033051;28;20172;-77
2021/10/06 02:25:48;;;;;;;4.23;1.00;;;13.90;99.90;;;;;;5030962;28;20553;-78
2021/10/06 02:28:14;;;;;;;1.83;0.70;;;14.00;99.90;;;;;;5031197;28;20174;-77
2021/10/06 02:30:40;;;;;;;2.90;0.50;;;14.00;99.90;;;;;;5033603;28;20206;-77
2021/10/06 02:33:06;;;;;;;4.57;0.70;;;14.10;99.90;;;;;;5034941;28;20252;-78
2021/10/06 02:35:32;;;;;;;3.20;1.00;;;14.10;99.90;;;;;;5034794;28;20557;-77
2021/10/06 02:37:57;;;;;;;1.95;0.60;;;14.10;99.90;;;;;;5034933;28;20265;-78
2021/10/06 02:40:23;;;;;;;2.83;0.80;;;14.20;99.90;;;;;;5034306;28;20269;-77
2021/10/06 02:42:49;;;;;;;3.17;1.00;;;14.10;99.90;;;;;;5033287;28;20177;-78
2021/10/06 02:45:17;;;;;;;3.05;0.73;;;14.20;99.90;;;;;;5033489;28;20572;-77
2021/10/06 02:47:43;;;;;;;3.50;0.80;;;14.10;99.90;;;;;;5034529;28;20181;-78
2021/10/06 02:50:14;;;;;;;3.60;0.80;;;14.10;99.90;;;;;;5034387;28;20212;-78
2021/10/06 02:52:40;;;;;;;2.25;0.70;;;14.10;99.90;;;;;;5039394;28;20168;-78
2021/10/06 02:55:07;;;;;;;2.90;0.70;;;14.10;99.90;;;;;;5034896;28;20158;-78
2021/10/06 02:57:36;;;;;;;3.10;1.00;;;14.10;99.90;;;;;;5033126;28;20565;-78
2021/10/06 03:00:06;;;;;;;5.13;1.17;;;14.10;99.90;;;;;;5032704;28;20611;-77
2021/10/06 03:02:32;;;;;;;2.10;0.80;;;14.10;99.90;;;;;;5034624;28;20169;-78
2021/10/06 03:04:58;;;;;;;3.53;0.80;;;14.10;99.90;;;;;;5056595;23;20856;-79
2021/10/06 03:07:24;;;;;;;1.83;0.87;;;14.10;99.90;;;;;;5071239;28;20594;-79
2021/10/06 03:09:49;;;;;;;3.90;0.63;;;14.10;99.90;;;;;;5036466;28;20188;-79
2021/10/06 03:12:15;;;;;;;6.67;1.00;;;14.10;99.90;;;;;;5036452;28;20280;-79
2021/10/06 03:14:41;;;;;;;2.60;0.67;;;14.10;99.90;;;;;;5032566;28;20192;-79
2021/10/06 03:17:07;;;;;;;3.20;0.80;;;14.10;99.90;;;;;;5000348;28;20170;-80
2021/10/06 03:19:32;;;;;;;3.07;0.80;;;14.10;99.90;;;;;;5034336;28;20162;-79
2021/10/06 03:21:58;;;;;;;1.50;0.70;;;14.10;99.90;;;;;;5016493;28;20177;-79
2021/10/06 03:24:24;;;;;;;2.17;0.80;;;14.10;99.90;;;;;;5038584;28;20169;-79
2021/10/06 03:26:49;;;;;;;4.60;1.13;;;14.20;99.90;;;;;;5016184;28;20165;-79
2021/10/06 03:29:15;;;;;;;3.50;0.87;;;14.20;99.90;;;;;;4999665;28;20227;-78
2021/10/06 03:31:41;;;;;;;4.17;1.03;;;14.20;99.90;;;;;;5033398;28;20165;-79
2021/10/06 03:34:06;;;;;;;3.53;0.70;;;14.20;99.90;;;;;;5016160;28;20166;-79
2021/10/06 03:36:32;;;;;;;3.40;0.90;;;14.20;99.90;;;;;;5033504;28;20186;-79
2021/10/06 03:38:58;;;;;;;3.60;0.80;;;14.20;99.90;;;;;;5015988;28;20200;-79
2021/10/06 03:41:24;;;;;;;4.40;0.70;;;14.10;99.90;;;;;;5031668;28;20568;-79
2021/10/06 03:43:49;;;;;;;2.90;0.90;;;14.10;99.90;;;;;;5015625;28;20166;-79
2021/10/06 03:46:15;;;;;;;2.37;0.70;;;14.00;99.90;;;;;;5015654;28;20561;-79
2021/10/06 03:48:41;;;;;;;3.00;0.97;;;14.00;99.90;;;;;;5016454;28;20519;-78
2021/10/06 03:51:08;;;;;;;1.97;0.70;;;13.90;99.90;;;;;;5015497;28;20655;-80
2021/10/06 03:53:33;;;;;;;6.07;0.70;;;13.90;99.90;;;;;;5033519;28;20176;-80
2021/10/06 03:55:59;;;;;;;2.40;0.80;;;13.80;99.90;;;;;;5033517;28;20189;-80
2021/10/06 03:58:25;;;;;;;2.33;0.70;;;13.80;99.90;;;;;;5015740;28;20162;-80
2021/10/06 04:00:50;;;;;;;2.50;0.70;;;13.70;99.90;;;;;;5038458;28;20257;-79
2021/10/06 04:03:16;;;;;;;4.80;1.07;;;13.70;99.90;;;;;;5033223;28;20169;-79
2021/10/06 04:05:42;;;;;;;2.83;0.90;;;13.70;99.90;;;;;;5015698;28;20217;-79
2021/10/06 04:08:08;;;;;;;3.83;0.80;;;13.60;99.90;;;;;;5033277;28;20172;-79
2021/10/06 04:10:34;;;;;;;2.30;0.70;;;13.60;99.90;;;;;;5032787;28;20643;-79
2021/10/06 04:13:00;;;;;;;2.33;0.70;;;13.60;99.90;;;;;;5015214;28;20580;-79
2021/10/06 04:15:26;;;;;;;4.53;1.30;;;13.60;99.90;;;;;;5033229;28;20547;-79
2021/10/06 04:17:52;;;;;;;2.00;1.13;;;13.60;99.90;;;;;;5032923;28;20173;-79
2021/10/06 04:20:18;;;;;;;2.77;1.00;;;13.70;99.90;;;;;;5032786;28;20161;-79
2021/10/06 04:22:43;;;;;;;4.00;0.70;;;13.70;99.90;;;;;;5032907;28;20174;-79
2021/10/06 04:25:09;;;;;;;3.10;0.80;;;13.70;99.90;;;;;;5033223;28;20186;-79
2021/10/06 04:27:35;;;;;;;3.03;0.70;;;13.70;99.90;;;;;;5015377;28;20175;-79
2021/10/06 04:30:03;;;;;;;2.33;1.00;;;13.80;99.90;;;;;;5032199;28;20616;-79
2021/10/06 04:32:28;;;;;;;1.98;0.93;;;13.80;99.90;;;;;;5015329;28;20186;-79
2021/10/06 04:34:54;;;;;;;3.37;0.80;;;13.90;99.90;;;;;;5015053;28;20202;-79
2021/10/06 04:37:20;;;;;;;3.33;0.70;;;13.90;99.90;;;;;;5020160;28;20630;-79
2021/10/06 04:39:45;;;;;;;4.50;0.70;;;14.00;99.90;;;;;;5032498;28;20571;-79
2021/10/06 04:42:11;;;;;;;2.70;0.80;;;14.00;99.90;;;;;;5032225;28;20166;-79
2021/10/06 04:44:37;;;;;;;3.63;1.23;;;14.10;99.90;;;;;;5032409;28;20196;-79
2021/10/06 04:47:02;;;;;;;2.10;0.60;;;14.10;99.90;;;;;;5032486;28;20587;-79
2021/10/06 04:49:28;;;;;;;4.87;0.73;;;14.10;99.90;;;;;;5014591;28;20214;-79
2021/10/06 04:51:54;;;;;;;3.27;0.70;;;14.20;99.90;;;;;;5031937;28;20656;-80
2021/10/06 04:54:19;;;;;;;4.43;0.90;;;14.20;99.90;;;;;;5031484;28;20215;-80
2021/10/06 04:56:45;;;;;;;2.23;0.70;;;14.20;99.90;;;;;;5014547;28;20629;-80
2021/10/06 04:59:11;;;;;;;3.40;0.60;;;14.30;99.90;;;;;;5032513;28;20172;-80
2021/10/06 05:01:36;;;;;;;4.13;1.17;;;14.30;99.90;;;;;;5032621;28;20648;-80
2021/10/06 05:04:02;;;;;;;5.27;1.67;;;14.30;99.90;;;;;;5014902;28;20166;-80
2021/10/06 05:06:28;;;;;;;3.60;1.00;;;14.30;99.90;;;;;;5033201;28;20201;-80
2021/10/06 05:08:54;;;;;;;4.00;1.17;;;14.30;99.90;;;;;;5033127;28;20173;-80
2021/10/06 05:11:22;;;;;;;5.77;0.77;;;14.30;99.90;;;;;;5040088;28;20201;-81
2021/10/06 05:13:49;;;;;;;4.97;1.00;;;14.30;99.90;;;;;;5047796;28;20170;-80
2021/10/06 05:16:15;;;;;;;5.55;1.55;;;14.30;99.90;;;;;;5045365;28;20225;-80
2021/10/06 05:18:41;;;;;;;3.47;0.90;;;14.30;99.90;;;;;;5047456;28;20180;-80
2021/10/06 05:21:06;;;;;;;1.90;0.60;;;14.30;99.90;;;;;;5026856;28;20174;-81
2021/10/06 05:23:32;;;;;;;1.53;0.60;;;14.30;99.90;;;;;;5028405;28;20173;-79
2021/10/06 05:25:58;;;;;;;3.27;0.83;;;14.30;99.90;;;;;;5045232;28;20185;-80
2021/10/06 05:28:23;;;;;;;5.60;0.80;;;14.30;99.90;;;;;;5028181;28;20592;-80
2021/10/06 05:30:49;;;;;;;4.07;0.70;;;14.30;99.90;;;;;;5014546;28;20205;-79
2021/10/06 05:33:15;;;;;;;4.17;0.80;;;14.30;99.90;;;;;;5014968;28;20172;-79
2021/10/06 05:35:41;;;;;;;5.50;1.10;;;14.30;99.90;;;;;;5032349;28;20216;-79
2021/10/06 05:38:07;;;;;;;5.83;0.90;;;14.30;99.90;;;;;;5032661;28;20572;-79
2021/10/06 05:40:32;;;;;;;5.20;0.70;;;14.40;99.90;;;;;;5032793;28;20508;-79
2021/10/06 05:42:58;;;;;;;2.90;0.80;;;14.40;99.90;;;;;;5032556;28;20580;-79
2021/10/06 05:45:24;;;;;;;7.80;1.03;;;14.40;99.90;;;;;;5014356;28;20515;-79
2021/10/06 05:47:50;;;;;;;2.57;0.70;;;14.40;99.90;;;;;;5031853;28;20671;-79
2021/10/06 05:50:17;;;;;;;2.15;0.60;;;14.40;99.90;;;;;;5014047;28;20627;-79
2021/10/06 05:52:43;;;;;;;2.17;0.60;;;14.40;99.90;;;;;;5018494;28;20170;-79
2021/10/06 05:55:09;;;;;;;2.10;0.70;;;14.40;99.90;;;;;;5031482;28;20678;-80
2021/10/06 05:57:35;;;;;;;2.53;1.10;;;14.40;99.90;;;;;;4997271;28;20161;-80
2021/10/06 06:00:00;;;;;;;2.37;0.67;;;14.40;99.90;;;;;;5013386;28;20216;-80
2021/10/06 06:02:26;;;;;;;3.23;1.10;;;14.40;99.90;;;;;;5024123;28;21052;-79
2021/10/06 06:04:52;;;;;;;3.50;0.93;;;14.40;99.90;;;;;;5035372;28;20196;-79
2021/10/06 06:07:18;;;;;;;3.13;0.67;;;14.40;99.90;;;;;;5037077;28;20173;-79
2021/10/06 06:09:43;;;;;;;1.70;0.60;;;14.50;99.90;;;;;;5037473;28;20538;-79
2021/10/06 06:12:12;;;;;;;2.53;0.70;;;14.50;99.90;;;;;;5054339;28;20520;-78
2021/10/06 06:14:39;;;;;;;2.42;0.85;;;14.60;99.90;;;;;;5017591;28;20189;-78
2021/10/06 06:17:06;;;;;;;1.63;0.60;;;14.60;99.90;;;;;;5000624;28;20172;-77
2021/10/06 06:19:31;;;;;;;4.43;0.80;;;14.70;99.90;;;;;;5035024;28;20177;-77
2021/10/06 06:21:57;;;;;;;4.60;0.70;;;14.80;99.90;;;;;;5034540;28;20173;-78
2021/10/06 06:24:26;;;;;;;3.50;0.80;;;14.80;99.90;;;;;;5016822;28;20645;-77
2021/10/06 06:26:53;;;;;;;2.53;0.60;;;14.90;99.90;;;;;;5034584;28;20177;-77
2021/10/06 06:29:19;;;;;;;1.97;0.70;;;15.00;99.90;;;;;;5021841;28;20576;-77
2021/10/06 06:31:45;;;;;;;1.30;0.60;;;15.20;99.90;;;;;;5034467;28;20596;-78
2021/10/06 06:34:10;;;;;;;3.57;0.70;;;15.30;99.90;;;;;;5016901;28;20619;-77
2021/10/06 06:36:36;;;;;;;2.33;0.63;;;15.40;99.90;;;;;;5016821;28;20548;-78
2021/10/06 06:39:02;;;;;;;1.70;0.80;;;15.50;99.90;;;;;;5000391;28;20170;-78
2021/10/06 06:41:28;;;;;;;2.00;0.70;;;15.60;99.90;;;;;;5000468;28;20189;-77
2021/10/06 06:43:54;;;;;;;3.00;0.70;;;15.70;99.90;;;;;;5035395;28;20603;-78
2021/10/06 06:46:19;;;;;;;1.70;0.70;;;15.70;99.90;;;;;;5035452;28;20189;-78
2021/10/06 06:48:45;;;;;;;4.33;0.80;;;15.80;99.90;;;;;;5017927;28;20524;-77
2021/10/06 06:51:11;;;;;;;2.67;0.80;;;15.80;99.90;;;;;;5034606;28;20674;-77
2021/10/06 06:53:37;;;;;;;5.07;1.57;;;15.80;99.90;;;;;;5017779;28;20182;-78
2021/10/06 06:56:03;;;;;;;1.40;0.67;;;15.80;99.90;;;;;;5017790;28;20604;-78
2021/10/06 06:58:28;;;;;;;6.43;0.87;;;15.80;99.90;;;;;;5034644;28;20201;-77
2021/10/06 07:00:54;;;;;;;2.83;0.70;;;15.70;99.90;;;;;;5034314;28;20607;-78
2021/10/06 07:03:20;;;;;;;1.97;0.63;;;15.70;99.90;;;;;;5021932;28;20178;-78
2021/10/06 07:05:47;;;;;;;2.43;0.77;;;15.70;99.90;;;;;;5020717;28;20685;-78
2021/10/06 07:08:13;;;;;;;4.17;0.80;;;15.60;99.90;;;;;;5016178;28;20288;-77
2021/10/06 07:10:39;;;;;;;2.40;0.70;;;15.50;99.90;;;;;;5015774;28;20622;-78
2021/10/06 07:13:05;;;;;;;5.27;1.10;;;15.50;99.90;;;;;;4999775;28;20671;-78
2021/10/06 07:15:30;;;;;;;1.93;0.60;;;15.40;99.90;;;;;;5015526;28;21151;-78
2021/10/06 07:17:57;;;;;;;2.33;0.67;;;15.40;99.90;;;;;;5000067;28;20568;-78
2021/10/06 07:20:23;;;;;;;3.07;0.80;;;15.30;99.90;;;;;;5015524;28;20186;-78
2021/10/06 07:22:49;;;;;;;2.70;0.90;;;15.20;99.90;;;;;;5015754;28;20580;-78
2021/10/06 07:25:18;;;;;;;4.70;0.87;;;15.10;99.90;;;;;;5033461;28;20610;-78
2021/10/06 07:27:44;;;;;;;3.60;1.33;;;15.10;99.90;;;;;;5015914;28;20180;-78
2021/10/06 07:30:11;;;;;;;4.47;0.70;;;15.00;99.90;;;;;;5015339;28;20547;-78
2021/10/06 07:32:37;;;;;;;2.47;0.75;;;14.90;99.90;;;;;;4999295;28;20623;-78
2021/10/06 07:35:04;;;;;;;2.30;0.60;;;14.90;99.90;;;;;;5015493;28;20285;-78
2021/10/06 07:37:30;;;;;;;1.77;0.60;;;14.80;99.90;;;;;;5033497;28;20667;-78
2021/10/06 07:39:56;;;;;;;3.30;0.70;;;14.80;99.90;;;;;;4998843;28;20541;-78
2021/10/06 07:42:22;;;;;;;3.50;0.65;;;14.80;99.90;;;;;;5037957;28;20219;-78
2021/10/06 07:44:49;;;;;;;5.70;0.90;;;14.70;99.90;;;;;;5033788;28;20197;-78
2021/10/06 07:47:15;;;;;;;3.15;0.75;;;14.70;99.90;;;;;;4999279;28;20192;-78
2021/10/06 07:49:41;;;;;;;4.00;0.60;;;14.80;99.90;;;;;;5015349;28;20197;-78
2021/10/06 07:52:10;;;;;;;1.80;0.60;;;14.70;99.90;;;;;;5032834;28;20576;-78
2021/10/06 07:54:37;;;;;;;2.27;0.70;;;14.80;99.90;;;;;;5033242;28;20593;-78
2021/10/06 07:57:03;;;;;;;1.70;0.60;;;14.80;99.90;;;;;;5015577;28;20606;-78
2021/10/06 07:59:29;;;;;;;3.80;0.70;;;14.80;99.90;;;;;;5032770;28;21112;-79
2021/10/06 08:01:55;;;;;;;2.50;0.80;;;14.90;99.90;;;;;;5032580;28;20576;-77
2021/10/06 08:04:21;;;;;;;1.50;0.53;;;14.90;99.90;;;;;;5015306;28;20572;-78
2021/10/06 08:06:48;;;;;;;2.77;0.80;;;14.90;99.90;;;;;;5033209;28;20186;-78
2021/10/06 08:09:13;;;;;;;2.43;0.77;;;14.90;99.90;;;;;;5015166;28;20573;-79
2021/10/06 08:11:39;;;;;;;3.40;0.70;;;14.90;99.90;;;;;;4998215;28;20596;-78
2021/10/06 08:14:05;;;;;;;3.73;0.80;;;14.90;99.90;;;;;;5015453;28;20256;-78
2021/10/06 08:16:31;;;;;;;7.93;0.80;;;14.90;99.90;;;;;;5014690;28;20189;-79
2021/10/06 08:18:57;;;;;;;3.27;1.03;;;14.90;99.90;;;;;;5016965;28;20162;-78
2021/10/06 08:21:23;;;;;;;4.13;1.67;;;14.90;99.90;;;;;;5018667;28;20591;-78
2021/10/06 08:23:49;;;;;;;1.70;0.70;;;14.90;99.90;;;;;;5015050;28;20231;-78
2021/10/06 08:26:15;;;;;;;4.90;0.70;;;14.90;99.90;;;;;;4998212;28;20976;-78
2021/10/06 08:28:40;;;;;;;2.20;0.70;;;14.90;99.90;;;;;;5032494;28;20173;-78
2021/10/06 08:31:06;;;;;;;3.00;0.60;;;14.90;99.90;;;;;;5032054;28;20220;-78
2021/10/06 08:33:32;;;;;;;1.87;0.70;;;14.90;99.90;;;;;;5032199;28;20170;-77
2021/10/06 08:35:58;;;;;;;1.37;0.53;;;15.00;99.90;;;;;;5014726;28;20615;-78
2021/10/06 08:38:25;;;;;;;3.63;0.70;;;15.00;99.90;;;;;;5032152;28;20284;-78
2021/10/06 08:40:51;;;;;;;5.17;0.80;;;15.00;99.90;;;;;;5031922;28;21174;-78
2021/10/06 08:43:16;;;;;;;2.10;0.70;;;15.10;99.90;;;;;;5030883;28;20162;-77
2021/10/06 08:45:42;;;;;;;2.50;0.60;;;15.10;99.90;;;;;;5014383;28;20194;-77
2021/10/06 08:48:10;;;;;;;2.67;0.80;;;15.20;99.90;;;;;;5014292;28;20177;-77
2021/10/06 08:50:37;;;;;;;2.20;0.50;;;15.20;99.90;;;;;;5031868;28;20547;-78
2021/10/06 08:53:04;;;;;;;3.60;0.90;;;15.30;99.90;;;;;;5032418;28;20561;-78
2021/10/06 08:55:30;;;;;;;2.00;0.60;;;15.40;99.90;;;;;;4997942;28;20623;-78
2021/10/06 08:58:01;;;;;;;4.57;0.70;;;15.50;99.90;;;;;;5036587;28;20920;-78
2021/10/06 09:00:27;;;;;;;1.70;0.70;;;15.50;99.90;;;;;;5031637;28;20564;-77
2021/10/06 09:02:53;;;;;;;1.40;0.50;;;15.60;99.90;;;;;;5032029;28;20617;-78
2021/10/06 09:05:24;;;;;;;2.10;0.60;;;15.60;99.90;;;;;;5013624;28;20624;-79
2021/10/06 09:07:54;;;;;;;2.23;0.70;;;15.70;99.90;;;;;;5031713;28;20620;-78
2021/10/06 09:10:21;;;;;;;1.50;0.60;;;15.70;99.90;;;;;;5031181;28;20631;-78
2021/10/06 09:13:03;;;;;;;1.73;0.50;;;15.80;99.90;;;;;;5051556;28;20571;-78
2021/10/06 09:15:49;;;;;;;2.70;1.37;;;15.80;99.90;;;;;;5051150;28;20591;-78
2021/10/06 09:18:21;;;;;;;1.20;0.50;;;15.90;99.90;;;;;;5034024;28;20637;-78
2021/10/06 09:20:47;;;;;;;1.53;0.60;;;15.90;99.90;;;;;;5051004;28;20651;-78
2021/10/06 09:23:15;;;;;;;5.03;0.57;;;16.00;99.90;;;;;;5050279;28;20556;-78
2021/10/06 09:25:50;;;;;;;5.90;1.00;;;16.00;99.90;;;;;;5015412;28;21236;-78
2021/10/06 09:28:33;;;;;;;1.23;0.60;;;16.00;99.90;;;;;;5051698;28;20583;-78
2021/10/06 09:31:00;;;;;;;3.77;0.90;;;16.00;99.90;;;;;;5050993;28;21168;-79
2021/10/06 09:33:43;;;;;;;1.60;0.50;;;16.00;99.90;;;;;;5036926;28;20568;-79
2021/10/06 09:36:25;;;;;;;1.60;0.60;;;16.00;99.90;;;;;;5051337;28;21064;-79
2021/10/06 09:38:53;;;;;;;1.80;0.60;;;15.90;99.90;;;;;;5032955;28;21363;-78
2021/10/06 09:41:28;;;;;;;2.17;0.60;;;15.90;99.90;;;;;;5050933;28;20575;-80
2021/10/06 09:44:04;;;;;;;2.23;0.50;;;15.90;99.90;;;;;;5033911;28;20997;-80
2021/10/06 09:46:48;;;;;;;5.13;0.70;;;15.90;99.90;;;;;;5051957;28;20653;-78
2021/10/06 09:49:25;;;;;;;3.20;0.70;;;15.90;99.90;;;;;;5061901;28;20568;-82
2021/10/06 09:51:54;;;;;;;1.97;0.60;;;16.00;99.90;;;;;;5060297;28;20579;-82
2021/10/06 09:54:20;;;;;;;3.00;0.60;;;16.00;99.90;;;;;;5055995;28;20560;-83
2021/10/06 09:56:48;;;;;;;2.40;0.93;;;16.10;99.90;;;;;;5039373;28;20686;-82
2021/10/06 09:59:15;;;;;;;1.40;0.40;;;16.10;99.90;;;;;;5026061;28;20583;-80
2021/10/06 10:01:42;;;;;;;1.57;0.50;;;16.10;99.90;;;;;;5040880;28;20658;-83
2021/10/06 10:04:09;;;;;;;1.40;0.50;;;16.10;99.90;;;;;;5049794;28;20564;-82
2021/10/06 10:06:36;;;;;;;1.80;0.47;;;16.20;99.90;;;;;;5048251;28;20611;-83
2021/10/06 10:09:05;;;;;;;1.23;0.50;;;16.20;99.90;;;;;;5046763;28;20610;-82
2021/10/06 10:11:34;;;;;;;1.30;0.50;;;16.20;99.90;;;;;;5056449;28;20620;-82
2021/10/06 10:14:03;;;;;;;1.97;0.50;;;16.20;99.90;;;;;;5053954;28;20927;-83
2021/10/06 10:16:29;;;;;;;1.73;0.50;;;16.20;99.90;;;;;;5055260;28;20618;-82
2021/10/06 10:19:04;;;;;;;1.70;0.90;;;16.20;99.90;;;;;;5058437;28;20564;-82
2021/10/06 10:21:31;;;;;;;1.30;0.50;;;16.20;99.90;;;;;;5062042;28;20575;-82
2021/10/06 10:24:08;;;;;;;1.47;0.47;;;16.20;99.90;;;;;;5055735;28;20559;-82
2021/10/06 10:26:34;;;;;;;2.63;0.60;;;16.20;99.90;;;;;;5033920;28;20607;-82
2021/10/06 10:29:00;;;;;;;1.40;0.50;;;16.20;99.90;;;;;;5051305;28;20934;-82
2021/10/06 10:31:26;;;;;;;1.20;0.50;;;16.20;99.90;;;;;;5062408;28;20208;-82
2021/10/06 10:33:53;;;;;;;1.90;0.70;;;16.20;99.90;;;;;;5059587;28;20560;-83
2021/10/06 10:36:49;;;;;;;1.30;0.50;;;16.20;99.90;;;;;;5037169;28;20603;-81
2021/10/06 10:39:41;;;;;;;1.10;0.40;;;16.20;99.90;;;;;;5061527;28;20571;-82
2021/10/06 10:42:07;;;;;;;1.80;0.47;;;16.20;99.90;;;;;;5069617;28;20572;-82
2021/10/06 10:44:34;;;;;;;1.50;0.50;;;16.20;99.90;;;;;;5068194;28;20572;-82
2021/10/06 10:47:06;;;;;;;1.87;0.70;;;16.10;99.90;;;;;;5052933;28;20165;-82
2021/10/06 10:49:53;;;;;;;1.63;0.80;;;16.10;99.90;;;;;;5040788;28;20586;-82
2021/10/06 10:52:39;;;;;;;1.73;0.50;;;16.10;99.90;;;;;;5055711;28;20632;-83
2021/10/06 10:55:07;;;;;;;1.87;0.50;;;16.10;99.90;;;;;;5055177;28;20618;-82
2021/10/06 10:57:33;;;;;;;1.63;0.67;;;16.00;99.90;;;;;;5055157;28;21145;-83
2021/10/06 11:00:00;;;;;;;2.87;0.70;;;15.90;99.90;;;;;;5041385;28;20594;-82
2021/10/06 11:02:35;;;;;;;1.60;0.53;;;15.90;99.90;;;;;;5040428;28;20587;-83
2021/10/06 11:05:04;;;;;;;1.20;0.60;;;15.90;99.90;;;;;;5045479;28;20653;-84
2021/10/06 11:07:30;;;;;;;2.10;0.53;;;15.90;99.90;;;;;;5039551;28;20583;-83
2021/10/06 11:10:00;;;;;;;1.40;0.50;;;15.90;99.90;;;;;;5053701;28;20598;-82
2021/10/06 11:12:32;;;;;;;1.40;0.67;;;15.90;99.90;;;;;;5050332;28;20663;-82
2021/10/06 11:15:13;;;;;;;1.40;0.60;;;15.90;99.90;;;;;;5043035;28;20629;-84
2021/10/06 11:18:09;;;;;;;1.77;0.60;;;15.90;99.90;;;;;;5040178;28;20595;-83
2021/10/06 11:20:47;;;;;;;1.47;0.53;;;16.00;99.90;;;;;;5039898;28;20584;-83
2021/10/06 11:23:31;;;;;;;1.67;0.50;;;16.00;99.90;;;;;;5040666;28;20603;-82
2021/10/06 11:26:21;;;;;;;2.03;0.70;;;16.00;99.90;;;;;;5046207;28;20622;-83
2021/10/06 11:28:49;;;;;;;3.53;2.33;;;16.00;99.90;;;;;;5039473;28;21337;-83
2021/10/06 11:31:21;;;;;;;2.27;1.00;;;16.10;99.90;;;;;;5055580;28;20638;-83
2021/10/06 11:33:47;;;;;;;1.60;0.70;;;16.10;99.90;;;;;;5056686;28;20556;-82
2021/10/06 11:36:22;;;;;;;1.40;0.80;;;16.20;99.90;;;;;;5023187;28;20598;-83
2021/10/06 11:38:51;;;;;;;2.00;0.70;;;16.20;99.90;;;;;;5038054;28;20705;-82
2021/10/06 11:41:17;;;;;;;2.37;0.70;;;16.30;99.90;;;;;;5057989;28;20570;-82
2021/10/06 11:43:49;;;;;;;2.97;1.10;;;16.30;99.90;;;;;;5039219;28;20588;-82
2021/10/06 11:46:17;;;;;;;1.57;0.90;;;16.40;99.90;;;;;;5036887;28;20606;-82
2021/10/06 11:48:47;;;;;;;1.50;0.60;;;16.40;99.90;;;;;;5050728;28;20591;-82
2021/10/06 11:51:13;;;;;;;4.13;0.80;;;16.50;99.90;;;;;;5053835;28;20615;-84
2021/10/06 11:53:47;;;;;;;1.97;1.20;;;16.50;99.90;;;;;;5035959;28;20571;-84
2021/10/06 11:56:27;;;;;;;1.60;0.93;;;16.50;99.90;;;;;;5035987;28;20719;-84
2021/10/06 11:58:54;;;;;;;1.50;0.80;;;16.50;99.90;;;;;;5007284;28;20683;-84
2021/10/06 12:01:19;;;;;;;2.27;1.73;;;16.50;99.90;;;;;;5066411;28;20629;-84
2021/10/06 12:03:45;;;;;;;3.30;1.63;;;16.60;99.90;;;;;;5057560;28;20580;-84
2021/10/06 12:06:17;;;;;;;4.07;1.80;;;16.60;99.90;;;;;;5020205;28;20292;-83
2021/10/06 12:08:43;;;;;;;2.57;1.40;;;16.60;99.90;;;;;;5056182;28;20580;-82
2021/10/06 12:11:09;;;;;;;1.70;1.00;;;16.60;99.90;;;;;;5059380;28;20615;-82
2021/10/06 12:13:39;;;;;;;2.00;1.10;;;16.70;99.90;;;;;;5057927;28;20570;-82
2021/10/06 12:16:37;;;;;;;2.40;1.10;;;16.60;99.90;;;;;;5057042;28;20602;-83
2021/10/06 12:19:03;;;;;;;2.83;1.20;;;16.60;99.90;;;;;;5038606;28;20605;-82
2021/10/06 12:21:30;;;;;;;2.20;0.90;;;16.60;99.90;;;;;;5022104;28;20594;-81
2021/10/06 12:24:15;;;;;;;2.10;0.70;;;16.50;99.90;;;;;;5040913;28;20580;-81
2021/10/06 12:26:40;;;;;;;1.37;0.90;;;16.50;99.90;;;;;;5063983;28;20647;-81
2021/10/06 12:29:06;;;;;;;5.33;1.23;;;16.50;99.90;;;;;;5060705;28;20583;-81
2021/10/06 12:31:33;;;;;;;2.50;0.80;;;16.50;99.90;;;;;;5053625;28;20679;-82
2021/10/06 12:34:14;;;;;;;1.70;0.70;;;16.50;99.90;;;;;;5019165;28;20197;-82
2021/10/06 12:36:56;;;;;;;1.70;0.77;;;16.50;99.90;;;;;;5036137;28;20653;-81
2021/10/06 12:39:30;;;;;;;1.30;0.67;;;16.60;99.90;;;;;;5056550;28;20572;-81
2021/10/06 12:41:58;;;;;;;1.77;0.87;;;16.70;99.90;;;;;;5054589;28;20559;-81
2021/10/06 12:44:27;;;;;;;1.30;0.70;;;16.80;99.90;;;;;;5052767;28;20611;-82
2021/10/06 12:46:55;;;;;;;1.27;0.60;;;16.90;99.90;;;;;;5052153;28;20655;-82
2021/10/06 12:49:22;;;;;;;2.37;1.10;;;17.00;99.90;;;;;;5052465;28;20919;-82
2021/10/06 12:51:57;;;;;;;2.00;0.90;;;17.00;99.90;;;;;;5034654;28;20595;-82